Time;durP1;ratioP1;P1;durP2;ratioP2;P2;SDS_P1;SDS_P2;PMS_P1;PMS_P2;Temp;Humidity;BMP_temperature;BMP_pressure;BME280_temperature;BME280_humidity;BME280_pressure;Samples;Min_cycle;Max_cycle;Signal;HPM_P1;HPM_P2
2022/01/19 00:00:29;;;;;;;9.50;5.77;;;5.80;99.90;;;;;;5053583;28;20171;-69
2022/01/19 00:02:54;;;;;;;11.80;5.43;;;5.70;99.90;;;;;;5054679;28;20190;-69
2022/01/19 00:05:19;;;;;;;9.50;5.47;;;5.70;99.90;;;;;;5053720;28;20174;-69
2022/01/19 00:07:45;;;;;;;11.93;4.97;;;5.70;99.90;;;;;;5055160;28;20883;-70
2022/01/19 00:10:15;;;;;;;10.60;5.17;;;5.60;99.90;;;;;;5056940;28;20207;-68
2022/01/19 00:12:43;;;;;;;11.77;6.40;;;5.60;99.90;;;;;;5051732;28;20235;-68
2022/01/19 00:15:10;;;;;;;12.37;6.10;;;5.60;99.90;;;;;;5046233;28;20203;-68
2022/01/19 00:17:35;;;;;;;11.90;5.83;;;5.60;99.90;;;;;;5054634;28;20221;-68
2022/01/19 00:20:01;;;;;;;11.13;6.33;;;5.60;99.90;;;;;;5052466;28;20832;-68
2022/01/19 00:22:27;;;;;;;11.20;6.63;;;5.60;99.90;;;;;;5055373;28;20222;-70
2022/01/19 00:24:53;;;;;;;10.40;5.60;;;5.60;99.90;;;;;;5054871;28;20194;-70
2022/01/19 00:27:18;;;;;;;9.90;4.93;;;5.60;99.90;;;;;;5051176;28;20194;-71
2022/01/19 00:29:44;;;;;;;9.23;5.20;;;5.70;99.90;;;;;;5055810;28;20265;-69
2022/01/19 00:32:09;;;;;;;10.13;6.47;;;5.60;99.90;;;;;;5052008;28;20183;-70
2022/01/19 00:34:35;;;;;;;9.63;5.63;;;5.60;99.90;;;;;;5055507;28;20282;-70
2022/01/19 00:37:01;;;;;;;11.40;6.33;;;5.60;99.90;;;;;;5050339;28;20583;-71
2022/01/19 00:39:32;;;;;;;14.70;6.23;;;5.60;99.90;;;;;;5055202;28;20239;-70
2022/01/19 00:41:59;;;;;;;12.80;5.33;;;5.70;99.90;;;;;;5054654;28;20190;-70
2022/01/19 00:44:24;;;;;;;13.43;5.80;;;5.70;99.90;;;;;;5056403;28;20302;-70
2022/01/19 00:46:50;;;;;;;14.60;5.43;;;5.70;99.90;;;;;;5052928;28;20269;-70
2022/01/19 00:49:16;;;;;;;12.60;6.07;;;5.60;99.90;;;;;;5056162;28;20194;-71
2022/01/19 00:51:41;;;;;;;11.27;6.23;;;5.60;99.90;;;;;;5054354;28;20195;-70
2022/01/19 00:54:07;;;;;;;12.37;6.83;;;5.50;99.90;;;;;;5051213;28;20210;-69
2022/01/19 00:56:34;;;;;;;11.20;6.43;;;5.50;99.90;;;;;;5055192;28;20667;-69
2022/01/19 00:59:00;;;;;;;11.90;5.63;;;5.50;99.90;;;;;;5057219;28;20703;-69
2022/01/19 01:01:26;;;;;;;8.93;6.17;;;5.50;99.90;;;;;;5052157;28;20217;-70
2022/01/19 01:03:51;;;;;;;12.40;6.30;;;5.60;99.90;;;;;;5053992;28;20183;-69
2022/01/19 01:06:18;;;;;;;11.13;6.23;;;5.60;99.90;;;;;;5050829;28;20651;-68
2022/01/19 01:08:44;;;;;;;11.80;6.20;;;5.50;99.90;;;;;;5055509;28;20198;-71
2022/01/19 01:11:10;;;;;;;8.50;6.33;;;5.60;99.90;;;;;;5051088;28;20207;-70
2022/01/19 01:15:26;;;;;;;15.00;5.77;;;5.60;99.90;;;;;;5052985;28;20660;-69
2022/01/19 01:16:37;;;;;;;13.73;6.90;;;5.60;99.90;;;;;;5051948;28;20206;-70
2022/01/19 01:19:09;;;;;;;13.30;7.33;;;5.70;99.90;;;;;;5055620;28;20182;-68
2022/01/19 01:21:35;;;;;;;14.27;7.27;;;5.70;99.90;;;;;;5050288;28;20219;-68
2022/01/19 01:24:02;;;;;;;14.83;6.87;;;5.60;99.90;;;;;;5051197;28;20332;-71
2022/01/19 01:26:31;;;;;;;15.50;7.20;;;5.60;99.90;;;;;;5051195;28;20652;-71
2022/01/19 01:28:56;;;;;;;14.57;6.27;;;5.50;99.90;;;;;;5056286;28;20197;-69
2022/01/19 01:31:22;;;;;;;21.83;8.63;;;5.50;99.90;;;;;;5052310;28;20186;-71
2022/01/19 01:33:47;;;;;;;14.67;7.37;;;5.50;99.90;;;;;;5054005;28;20229;-71
2022/01/19 01:36:14;;;;;;;14.43;8.03;;;5.50;99.90;;;;;;5052075;28;20210;-71
2022/01/19 01:38:40;;;;;;;19.47;9.07;;;5.50;99.90;;;;;;5063516;28;20210;-70
2022/01/19 01:41:08;;;;;;;14.73;8.20;;;5.60;99.90;;;;;;5050014;28;20264;-74
2022/01/19 01:43:35;;;;;;;13.80;8.20;;;5.50;99.90;;;;;;5063680;28;20215;-73
2022/01/19 01:46:04;;;;;;;15.80;8.33;;;5.60;99.90;;;;;;5061870;28;20289;-73
2022/01/19 01:48:30;;;;;;;17.83;9.00;;;5.50;99.90;;;;;;5063828;28;20201;-72
2022/01/19 01:53:40;;;;;;;18.93;9.20;;;5.60;99.90;;;;;;5054910;28;20200;-70
2022/01/19 01:56:10;;;;;;;20.63;9.37;;;5.60;99.90;;;;;;5050959;28;20202;-70
2022/01/19 01:58:41;;;;;;;20.27;9.10;;;5.60;99.90;;;;;;5055534;28;20256;-70
2022/01/19 02:01:08;;;;;;;24.23;10.63;;;5.50;99.90;;;;;;5052484;28;20252;-70
2022/01/19 02:03:38;;;;;;;17.03;10.17;;;5.50;99.90;;;;;;5052389;28;20193;-70
2022/01/19 02:06:29;;;;;;;20.03;10.03;;;5.60;99.90;;;;;;5051522;28;20288;-71
2022/01/19 02:23:01;;;;;;;18.67;10.53;;;5.60;99.90;;;;;;5054997;28;20367;-72
2022/01/19 02:25:30;;;;;;;19.93;10.50;;;5.60;99.90;;;;;;5052112;28;20202;-71
2022/01/19 02:41:26;;;;;;;21.13;9.93;;;5.60;99.90;;;;;;5056742;28;20754;-65
2022/01/19 02:43:51;;;;;;;15.77;8.53;;;5.60;99.90;;;;;;5059809;28;20934;-61
2022/01/19 02:46:51;;;;;;;15.43;9.07;;;5.60;99.90;;;;;;5054936;28;20190;-60
2022/01/19 02:49:18;;;;;;;18.50;9.60;;;5.60;99.90;;;;;;5049938;28;20869;-61
2022/01/19 02:51:45;;;;;;;14.33;8.37;;;5.70;99.90;;;;;;5053306;28;20179;-62
2022/01/19 02:54:15;;;;;;;16.47;8.17;;;5.70;99.90;;;;;;5055266;28;20569;-62
2022/01/19 02:56:45;;;;;;;14.73;7.87;;;5.60;99.90;;;;;;5051579;28;20244;-68
2022/01/19 02:59:16;;;;;;;16.90;8.40;;;5.60;99.90;;;;;;5052875;28;20211;-65
2022/01/19 03:09:46;;;;;;;17.87;7.53;;;5.70;99.90;;;;;;5051052;28;20198;-68
2022/01/19 03:12:12;;;;;;;17.80;8.17;;;5.70;99.90;;;;;;5051594;28;20245;-67
2022/01/19 03:14:38;;;;;;;13.13;7.07;;;5.60;99.90;;;;;;5053154;28;20613;-68
2022/01/19 03:17:05;;;;;;;16.27;9.00;;;5.60;99.90;;;;;;5051375;28;20214;-65
2022/01/19 03:19:32;;;;;;;17.50;8.17;;;5.70;99.90;;;;;;5047621;28;20203;-68
2022/01/19 03:21:58;;;;;;;19.57;8.77;;;5.60;99.90;;;;;;5054978;28;20793;-68
2022/01/19 03:24:24;;;;;;;19.20;8.30;;;5.60;99.90;;;;;;5052094;28;20237;-66
2022/01/19 03:26:50;;;;;;;18.03;8.27;;;5.60;99.90;;;;;;5052197;28;20183;-69
2022/01/19 03:29:15;;;;;;;12.67;9.30;;;5.60;99.90;;;;;;5058577;28;20238;-67
2022/01/19 03:31:41;;;;;;;17.27;8.27;;;5.60;99.90;;;;;;5048733;28;20171;-68
2022/01/19 03:34:07;;;;;;;14.37;8.83;;;5.70;99.90;;;;;;5054783;28;20202;-68
2022/01/19 03:36:34;;;;;;;16.23;9.87;;;5.60;99.90;;;;;;5067649;28;20737;-67
2022/01/19 03:38:59;;;;;;;18.90;9.23;;;5.70;99.90;;;;;;5064948;28;20241;-67
2022/01/19 03:41:25;;;;;;;15.63;9.93;;;5.70;99.90;;;;;;5067559;28;20224;-63
2022/01/19 03:43:51;;;;;;;19.37;9.80;;;5.70;99.90;;;;;;5051548;28;20241;-63
2022/01/19 03:46:17;;;;;;;17.07;9.57;;;5.60;99.90;;;;;;5067026;28;20208;-63
2022/01/19 03:48:55;;;;;;;14.03;9.67;;;5.50;99.90;;;;;;5051273;28;20248;-63
2022/01/19 03:51:20;;;;;;;18.77;9.70;;;5.60;99.90;;;;;;5058995;28;20640;-64
2022/01/19 03:53:46;;;;;;;16.47;10.63;;;5.50;99.90;;;;;;5052861;28;20259;-63
2022/01/19 03:56:11;;;;;;;15.53;9.37;;;5.50;99.90;;;;;;5066706;28;20645;-63
2022/01/19 03:58:37;;;;;;;22.90;11.00;;;5.50;99.90;;;;;;5055303;28;20222;-63
2022/01/19 04:01:04;;;;;;;14.67;9.27;;;5.50;99.90;;;;;;5067279;28;20186;-63
2022/01/19 04:03:49;;;;;;;12.97;8.50;;;5.50;99.90;;;;;;5050380;28;20202;-63
2022/01/19 04:06:23;;;;;;;15.93;9.30;;;5.50;99.90;;;;;;5059714;28;20379;-63
2022/01/19 04:08:48;;;;;;;21.40;9.87;;;5.50;99.90;;;;;;5058114;28;20260;-62
2022/01/19 04:11:16;;;;;;;13.50;9.33;;;5.50;99.90;;;;;;5066137;28;21038;-63
2022/01/19 04:16:26;;;;;;;16.63;8.33;;;5.50;99.90;;;;;;5058971;28;20197;-64
2022/01/19 04:19:01;;;;;;;12.03;8.73;;;5.50;99.90;;;;;;5050114;28;20214;-63
2022/01/19 04:21:26;;;;;;;17.77;9.43;;;5.40;99.90;;;;;;5066544;28;20247;-64
2022/01/19 04:23:52;;;;;;;17.70;11.17;;;5.40;99.90;;;;;;5055509;28;20202;-65
2022/01/19 04:26:17;;;;;;;16.03;11.30;;;5.30;99.90;;;;;;5066394;28;20599;-63
2022/01/19 04:28:43;;;;;;;23.23;10.50;;;5.30;99.90;;;;;;5057371;28;20297;-63
2022/01/19 04:31:08;;;;;;;18.93;10.53;;;5.30;99.90;;;;;;5066846;28;20194;-63
2022/01/19 04:33:39;;;;;;;18.70;10.33;;;5.40;99.90;;;;;;5055003;28;20210;-63
2022/01/19 04:36:26;;;;;;;18.77;11.23;;;5.40;99.90;;;;;;5056212;28;20210;-64
2022/01/19 04:39:24;;;;;;;19.03;9.70;;;5.40;99.90;;;;;;5045072;28;20294;-64
2022/01/19 04:45:00;;;;;;;16.73;10.57;;;5.40;99.90;;;;;;5057571;28;20308;-64
2022/01/19 04:48:06;;;;;;;21.33;11.50;;;5.30;99.90;;;;;;5053648;28;20218;-65
2022/01/19 05:04:09;;;;;;;21.00;12.17;;;5.20;99.90;;;;;;5044905;28;20313;-63
2022/01/19 05:06:39;;;;;;;19.53;11.67;;;5.20;99.90;;;;;;5051721;28;20186;-63
2022/01/19 05:14:17;;;;;;;20.13;12.30;;;5.00;99.90;;;;;;5054019;28;20205;-62
2022/01/19 05:16:43;;;;;;;21.27;12.07;;;5.10;99.90;;;;;;5061578;28;20190;-62
2022/01/19 05:19:09;;;;;;;19.13;12.30;;;5.10;99.90;;;;;;5061615;28;20593;-63
2022/01/19 05:21:34;;;;;;;16.83;11.10;;;5.10;99.90;;;;;;5065380;28;20222;-63
2022/01/19 05:24:04;;;;;;;15.87;11.27;;;5.10;99.90;;;;;;5052409;28;20240;-63
2022/01/19 05:26:31;;;;;;;21.83;11.97;;;5.20;99.90;;;;;;5065245;28;20726;-63
2022/01/19 05:28:57;;;;;;;15.50;11.13;;;5.20;99.90;;;;;;5050282;28;20268;-63
2022/01/19 05:31:23;;;;;;;21.43;12.47;;;5.10;99.90;;;;;;5065493;28;20190;-62
2022/01/19 05:33:48;;;;;;;20.10;12.67;;;5.10;99.90;;;;;;5059576;28;20298;-63
2022/01/19 05:36:14;;;;;;;18.57;12.90;;;5.00;99.90;;;;;;5064707;28;20213;-63
2022/01/19 05:38:39;;;;;;;23.53;11.93;;;5.00;99.90;;;;;;5053583;28;20473;-63
2022/01/19 05:41:05;;;;;;;22.63;12.33;;;5.00;99.90;;;;;;5065427;28;20202;-63
2022/01/19 05:43:30;;;;;;;21.80;12.50;;;5.00;99.90;;;;;;5049771;28;20829;-63
2022/01/19 05:45:55;;;;;;;15.80;12.00;;;5.10;99.90;;;;;;5065167;28;20233;-64
2022/01/19 05:48:21;;;;;;;24.53;12.53;;;5.00;99.90;;;;;;5049124;28;20203;-63
2022/01/19 05:50:47;;;;;;;24.43;13.27;;;5.10;99.90;;;;;;5064736;28;20294;-64
2022/01/19 05:53:13;;;;;;;26.13;12.30;;;5.10;99.90;;;;;;5051273;28;20661;-64
2022/01/19 05:55:38;;;;;;;18.20;12.03;;;5.10;99.90;;;;;;5064717;28;20220;-63
2022/01/19 05:58:04;;;;;;;21.57;12.57;;;5.20;99.90;;;;;;5051908;28;20247;-63
2022/01/19 06:00:29;;;;;;;21.90;14.20;;;5.20;99.90;;;;;;5055140;28;20194;-64
2022/01/19 06:02:55;;;;;;;19.33;13.80;;;5.00;99.90;;;;;;5062928;28;20190;-64
2022/01/19 06:05:21;;;;;;;16.90;12.40;;;5.00;99.90;;;;;;5063420;28;20252;-64
2022/01/19 06:07:48;;;;;;;24.60;13.50;;;5.00;99.90;;;;;;5065530;28;20691;-63
2022/01/19 06:10:42;;;;;;;21.13;13.10;;;5.00;99.90;;;;;;5056411;28;20198;-63
2022/01/19 06:13:08;;;;;;;19.00;12.07;;;4.90;99.90;;;;;;5045727;28;20282;-63
2022/01/19 06:15:33;;;;;;;20.87;13.17;;;4.90;99.90;;;;;;5047899;28;20329;-62
2022/01/19 06:17:59;;;;;;;49.03;33.23;;;4.90;99.90;;;;;;5063062;28;20301;-63
2022/01/19 06:20:26;;;;;;;17.13;14.87;;;5.00;99.90;;;;;;5050704;28;20205;-63
2022/01/19 06:22:52;;;;;;;24.93;15.57;;;5.10;99.90;;;;;;5064205;28;20233;-63
2022/01/19 06:25:18;;;;;;;20.40;12.57;;;5.10;99.90;;;;;;5054903;28;20218;-63
2022/01/19 06:27:44;;;;;;;19.40;12.93;;;5.00;99.90;;;;;;5063717;28;20867;-64
2022/01/19 06:30:10;;;;;;;19.60;13.57;;;5.10;99.90;;;;;;5054003;28;20202;-65
2022/01/19 06:32:35;;;;;;;25.27;13.17;;;5.00;99.90;;;;;;5064404;28;20201;-64
2022/01/19 06:35:01;;;;;;;21.17;13.53;;;5.00;99.90;;;;;;5052713;28;20412;-64
2022/01/19 06:37:26;;;;;;;16.43;12.10;;;5.10;99.90;;;;;;5063605;28;20746;-65
2022/01/19 06:39:52;;;;;;;20.73;13.47;;;5.10;99.90;;;;;;5062811;28;20201;-64
2022/01/19 06:42:17;;;;;;;21.27;13.87;;;5.20;99.90;;;;;;5059958;28;20273;-64
2022/01/19 06:44:43;;;;;;;19.80;14.10;;;5.10;99.90;;;;;;5054603;28;20190;-65
2022/01/19 06:47:08;;;;;;;17.50;12.23;;;5.10;99.90;;;;;;5054807;28;20193;-64
2022/01/19 06:49:34;;;;;;;22.30;12.27;;;5.20;99.90;;;;;;5060158;28;20205;-64
2022/01/19 06:52:00;;;;;;;21.00;13.50;;;5.10;99.90;;;;;;5052682;28;20618;-64
2022/01/19 06:54:25;;;;;;;17.83;11.43;;;5.10;99.90;;;;;;5061708;28;20193;-64
2022/01/19 06:56:50;;;;;;;20.87;12.37;;;5.00;99.90;;;;;;5048211;28;20182;-65
2022/01/19 06:59:16;;;;;;;17.40;12.03;;;5.00;99.90;;;;;;5065203;28;20703;-64
2022/01/19 07:01:41;;;;;;;20.30;12.60;;;4.90;99.90;;;;;;5052070;28;20178;-65
2022/01/19 07:04:10;;;;;;;19.03;12.63;;;4.80;99.90;;;;;;5066553;28;20186;-65
2022/01/19 07:06:36;;;;;;;22.77;12.93;;;4.80;99.90;;;;;;5054446;28;20202;-64
2022/01/19 07:09:01;;;;;;;19.97;12.70;;;4.80;99.90;;;;;;5061963;28;20697;-65
2022/01/19 07:11:27;;;;;;;16.03;11.23;;;4.90;99.90;;;;;;5055604;28;20182;-65
2022/01/19 07:13:52;;;;;;;18.57;9.80;;;5.00;99.90;;;;;;5065571;28;20198;-65
2022/01/19 07:16:18;;;;;;;18.63;9.67;;;5.00;99.90;;;;;;5059425;28;20186;-67
2022/01/19 07:18:44;;;;;;;22.20;10.87;;;5.00;99.90;;;;;;5067889;28;20263;-65
2022/01/19 07:21:09;;;;;;;17.87;10.07;;;4.90;99.90;;;;;;5056347;28;20264;-65
2022/01/19 07:23:35;;;;;;;17.77;10.90;;;4.90;99.90;;;;;;5067992;28;20282;-64
2022/01/19 07:26:03;;;;;;;18.07;9.13;;;4.90;99.90;;;;;;5052953;28;20794;-67
2022/01/19 07:28:29;;;;;;;16.40;8.97;;;5.00;99.90;;;;;;5067532;28;20282;-67
2022/01/19 07:30:54;;;;;;;13.80;8.50;;;5.10;99.90;;;;;;5057528;28;20285;-67
2022/01/19 07:33:19;;;;;;;14.70;8.37;;;5.00;99.90;;;;;;5067273;28;20538;-66
2022/01/19 07:35:50;;;;;;;9.73;7.23;;;5.00;99.90;;;;;;5058718;28;20260;-67
2022/01/19 07:38:16;;;;;;;19.27;8.70;;;5.00;99.90;;;;;;5058677;28;20218;-67
2022/01/19 07:40:42;;;;;;;18.93;8.90;;;5.10;99.90;;;;;;5058276;28;20206;-67
2022/01/19 07:43:07;;;;;;;13.43;7.97;;;5.10;99.90;;;;;;5067507;28;20657;-66
2022/01/19 07:45:33;;;;;;;17.33;7.47;;;5.10;99.90;;;;;;5056862;28;20206;-66
2022/01/19 07:47:58;;;;;;;13.33;6.93;;;5.20;99.90;;;;;;5066659;28;20233;-66
2022/01/19 07:50:24;;;;;;;13.37;7.33;;;5.20;99.90;;;;;;5064626;28;20225;-66
2022/01/19 07:52:49;;;;;;;12.67;7.77;;;5.10;99.90;;;;;;5066687;28;20190;-67
2022/01/19 07:55:14;;;;;;;13.53;7.60;;;5.10;99.90;;;;;;5056463;28;20243;-67
2022/01/19 07:57:45;;;;;;;12.37;7.17;;;5.10;99.90;;;;;;5067169;28;20211;-67
2022/01/19 08:00:11;;;;;;;16.07;7.07;;;5.10;99.90;;;;;;5062259;28;20202;-67
2022/01/19 08:02:36;;;;;;;13.27;7.30;;;5.10;99.90;;;;;;5065909;28;20237;-66
2022/01/19 08:05:02;;;;;;;14.13;7.33;;;5.10;99.90;;;;;;5055193;28;20237;-66
2022/01/19 08:07:28;;;;;;;12.73;7.23;;;5.10;99.90;;;;;;5066114;28;20190;-66
2022/01/19 08:09:53;;;;;;;13.27;6.83;;;5.10;99.90;;;;;;5055477;28;20611;-66
2022/01/19 08:12:19;;;;;;;9.07;6.63;;;5.20;99.90;;;;;;5062372;28;20187;-66
2022/01/19 08:14:44;;;;;;;16.27;7.40;;;5.10;99.90;;;;;;5064048;28;20202;-66
2022/01/19 08:17:12;;;;;;;9.83;7.03;;;5.20;99.90;;;;;;5058974;28;20230;-67
2022/01/19 08:19:37;;;;;;;11.00;6.33;;;5.10;99.90;;;;;;5058485;28;20281;-66
2022/01/19 08:22:03;;;;;;;10.80;7.70;;;5.10;99.90;;;;;;5056968;28;20376;-66
2022/01/19 08:24:28;;;;;;;10.23;6.50;;;5.10;99.90;;;;;;5064536;28;20189;-66
2022/01/19 08:26:55;;;;;;;13.07;6.03;;;5.10;99.90;;;;;;5054562;28;20175;-68
2022/01/19 08:29:21;;;;;;;17.23;7.17;;;5.10;99.90;;;;;;5059812;28;20694;-66
2022/01/19 08:31:46;;;;;;;11.30;6.77;;;5.00;99.90;;;;;;5062175;28;20178;-67
2022/01/19 08:34:12;;;;;;;14.13;6.20;;;4.90;99.90;;;;;;5059629;28;20262;-67
2022/01/19 08:36:37;;;;;;;10.23;6.40;;;4.90;99.90;;;;;;5056705;28;20601;-67
2022/01/19 08:39:04;;;;;;;8.63;6.17;;;4.80;99.90;;;;;;5062569;28;20217;-67
2022/01/19 08:41:29;;;;;;;14.87;6.43;;;4.80;99.90;;;;;;5055408;28;20190;-67
2022/01/19 08:43:55;;;;;;;10.97;6.40;;;4.80;99.90;;;;;;5063209;28;20194;-67
2022/01/19 08:46:21;;;;;;;9.00;6.57;;;4.80;99.90;;;;;;5058362;28;20731;-67
2022/01/19 08:48:46;;;;;;;12.23;6.57;;;4.70;99.90;;;;;;5064594;28;20414;-67
2022/01/19 08:51:12;;;;;;;11.63;5.50;;;4.60;99.90;;;;;;5049633;28;20198;-67
2022/01/19 08:53:37;;;;;;;10.67;6.03;;;4.70;99.90;;;;;;5066068;28;20190;-67
2022/01/19 08:56:03;;;;;;;7.07;5.90;;;4.70;99.90;;;;;;5053704;28;20273;-66
2022/01/19 08:58:29;;;;;;;9.63;6.83;;;4.70;99.90;;;;;;5065816;28;20643;-67
2022/01/19 09:00:54;;;;;;;8.77;6.63;;;4.60;99.90;;;;;;5055244;28;20695;-67
2022/01/19 09:03:20;;;;;;;10.03;6.33;;;4.60;99.90;;;;;;5065789;28;20191;-66
2022/01/19 09:05:46;;;;;;;8.93;5.90;;;4.70;99.90;;;;;;5060678;28;20740;-67
2022/01/19 09:08:12;;;;;;;10.03;6.20;;;4.70;99.90;;;;;;5065135;28;20751;-67
2022/01/19 09:10:40;;;;;;;10.23;6.37;;;4.60;99.90;;;;;;5054857;28;20209;-67
2022/01/19 09:13:06;;;;;;;10.60;6.80;;;4.70;99.90;;;;;;5065713;28;20273;-67
2022/01/19 09:15:32;;;;;;;10.77;7.27;;;4.70;99.90;;;;;;5050502;28;20203;-67
2022/01/19 09:17:57;;;;;;;8.27;5.93;;;4.90;99.90;;;;;;5065167;28;20217;-67
2022/01/19 09:20:23;;;;;;;8.83;7.17;;;4.80;99.90;;;;;;5054427;28;20194;-66
2022/01/19 09:22:49;;;;;;;9.10;7.17;;;4.90;99.90;;;;;;5064551;28;20222;-66
2022/01/19 09:25:15;;;;;;;9.47;5.70;;;4.80;99.90;;;;;;5051767;28;20249;-66
2022/01/19 09:27:41;;;;;;;11.73;7.77;;;4.70;99.90;;;;;;5058075;28;20187;-66
2022/01/19 09:30:14;;;;;;;9.47;6.50;;;4.80;99.90;;;;;;5052013;28;20649;-66
2022/01/19 09:32:41;;;;;;;9.30;6.60;;;4.90;99.90;;;;;;5063914;28;20660;-66
2022/01/19 09:35:09;;;;;;;11.57;7.77;;;4.90;99.90;;;;;;5063083;28;20297;-66
2022/01/19 09:37:36;;;;;;;10.93;7.10;;;5.00;99.90;;;;;;5062467;28;20213;-66
2022/01/19 09:40:06;;;;;;;9.07;6.23;;;4.90;99.90;;;;;;5062831;28;20222;-66
2022/01/19 09:42:31;;;;;;;9.83;6.93;;;4.90;99.90;;;;;;5063555;28;20395;-66
2022/01/19 09:44:57;;;;;;;9.07;6.97;;;4.90;99.90;;;;;;5052811;28;20197;-66
2022/01/19 09:47:23;;;;;;;10.70;6.43;;;4.90;99.90;;;;;;5064283;28;20211;-66
2022/01/19 09:49:49;;;;;;;12.30;7.70;;;4.90;99.90;;;;;;5054788;28;20281;-66
2022/01/19 09:52:14;;;;;;;9.63;7.20;;;4.90;99.90;;;;;;5061215;28;20706;-65
2022/01/19 09:54:40;;;;;;;8.50;7.30;;;4.90;99.90;;;;;;5062349;28;20205;-66
2022/01/19 09:57:06;;;;;;;12.83;6.80;;;5.00;99.90;;;;;;5064961;28;20263;-66
2022/01/19 09:59:31;;;;;;;10.33;7.27;;;5.10;99.90;;;;;;5056768;28;20201;-66
2022/01/19 10:02:06;;;;;;;10.40;7.67;;;5.00;99.90;;;;;;5057736;28;20193;-65
2022/01/19 10:04:38;;;;;;;11.90;8.20;;;5.10;99.90;;;;;;5056779;28;20705;-67
2022/01/19 10:07:09;;;;;;;8.80;6.40;;;5.20;99.90;;;;;;5061369;28;20227;-65
2022/01/19 10:09:50;;;;;;;12.10;7.03;;;5.20;99.90;;;;;;5055716;28;20202;-66
2022/01/19 10:18:10;;;;;;;12.70;7.63;;;5.40;99.90;;;;;;5048918;28;20259;-66
2022/01/19 10:20:36;;;;;;;9.20;8.03;;;5.40;99.90;;;;;;5044512;28;20203;-66
2022/01/19 10:23:01;;;;;;;9.00;7.43;;;5.20;99.90;;;;;;5060537;28;20789;-66
2022/01/19 10:25:50;;;;;;;9.13;8.20;;;5.00;99.90;;;;;;5049964;28;20247;-65
2022/01/19 10:28:16;;;;;;;13.10;8.87;;;5.00;99.90;;;;;;5054077;28;20872;-66
2022/01/19 10:30:41;;;;;;;9.83;7.33;;;4.90;99.90;;;;;;5050990;28;20198;-65
2022/01/19 10:33:06;;;;;;;11.90;9.10;;;4.80;99.90;;;;;;5054674;28;20186;-65
2022/01/19 10:35:38;;;;;;;15.50;9.20;;;4.70;99.90;;;;;;5054776;28;20632;-65
2022/01/19 10:38:19;;;;;;;11.20;7.90;;;4.80;99.90;;;;;;5058928;28;20197;-65
2022/01/19 10:40:54;;;;;;;10.83;8.60;;;4.80;99.90;;;;;;5053752;28;20327;-65
2022/01/19 10:43:28;;;;;;;14.10;9.03;;;4.90;99.90;;;;;;5058278;28;20178;-66
2022/01/19 10:45:55;;;;;;;9.67;8.30;;;4.80;99.90;;;;;;5056816;28;20229;-66
2022/01/19 10:48:38;;;;;;;12.27;8.53;;;5.00;99.90;;;;;;5068432;28;20633;-66
2022/01/19 10:51:19;;;;;;;9.60;8.60;;;4.90;99.90;;;;;;5048945;28;20862;-66
2022/01/19 10:53:47;;;;;;;11.57;9.27;;;4.90;99.90;;;;;;5053360;28;20338;-67
2022/01/19 10:56:27;;;;;;;10.90;8.97;;;4.90;99.90;;;;;;5056653;28;20186;-65
2022/01/19 10:59:05;;;;;;;14.80;8.40;;;4.90;99.90;;;;;;5061964;28;20226;-67
2022/01/19 11:01:33;;;;;;;11.70;9.07;;;4.90;99.90;;;;;;5056170;28;20178;-67
2022/01/19 11:04:30;;;;;;;11.53;8.10;;;4.90;99.90;;;;;;5056712;28;20730;-67
2022/01/19 11:06:57;;;;;;;15.10;8.80;;;4.90;99.90;;;;;;5049995;28;20194;-66
2022/01/19 11:09:26;;;;;;;12.53;9.30;;;4.90;99.90;;;;;;5058621;28;20186;-66
2022/01/19 11:11:54;;;;;;;15.83;9.63;;;5.00;99.90;;;;;;5058085;28;20191;-65
2022/01/19 11:14:22;;;;;;;10.47;9.37;;;5.20;99.90;;;;;;5076611;28;20196;-66
2022/01/19 11:16:48;;;;;;;13.03;10.63;;;5.30;99.90;;;;;;5074154;28;20731;-67
2022/01/19 11:19:14;;;;;;;11.17;9.73;;;5.40;99.90;;;;;;5069446;28;20217;-65
2022/01/19 11:22:02;;;;;;;12.73;10.87;;;5.30;99.90;;;;;;5062918;28;20218;-66
2022/01/19 11:24:54;;;;;;;15.37;12.13;;;5.30;99.90;;;;;;5066414;28;20276;-66
2022/01/19 11:27:22;;;;;;;18.53;14.67;;;5.30;99.90;;;;;;5055556;28;20213;-65
2022/01/19 11:30:22;;;;;;;17.97;15.37;;;5.30;99.90;;;;;;5066700;28;20183;-66
2022/01/19 11:33:27;;;;;;;20.47;16.70;;;5.20;99.90;;;;;;5064522;28;20562;-68
2022/01/19 11:35:57;;;;;;;22.73;16.67;;;5.10;99.90;;;;;;5059328;28;20228;-68
2022/01/19 11:38:44;;;;;;;21.73;17.37;;;5.10;99.90;;;;;;5056859;28;20209;-68
2022/01/19 11:41:10;;;;;;;20.83;16.63;;;5.20;99.90;;;;;;5059029;28;20191;-72
2022/01/19 11:43:38;;;;;;;20.53;15.80;;;5.10;99.90;;;;;;5055709;28;20232;-67
2022/01/19 11:46:24;;;;;;;19.87;16.43;;;5.00;99.90;;;;;;5066010;28;20701;-67
2022/01/19 11:48:50;;;;;;;19.03;15.93;;;4.90;99.90;;;;;;5055128;28;20200;-68
2022/01/19 11:51:31;;;;;;;19.37;15.67;;;4.70;99.90;;;;;;5063977;28;20219;-69
2022/01/19 11:54:19;;;;;;;22.27;17.60;;;4.70;99.90;;;;;;5059858;28;20186;-68
2022/01/19 11:57:02;;;;;;;20.40;16.47;;;4.80;99.90;;;;;;5061252;28;20486;-68
2022/01/19 11:59:34;;;;;;;19.93;16.23;;;4.70;99.90;;;;;;5054253;28;20229;-66
2022/01/19 12:02:22;;;;;;;24.37;18.03;;;4.70;99.90;;;;;;5055245;28;20260;-65
2022/01/19 12:04:50;;;;;;;20.93;16.13;;;4.70;99.90;;;;;;5058404;28;20190;-67
2022/01/19 12:07:48;;;;;;;22.27;16.03;;;4.70;99.90;;;;;;5063774;28;20205;-68
2022/01/19 12:10:30;;;;;;;19.33;15.33;;;4.80;99.90;;;;;;5018902;28;20194;-66
2022/01/19 12:13:25;;;;;;;22.17;16.97;;;4.90;99.90;;;;;;5051195;28;20203;-68
2022/01/19 12:15:56;;;;;;;25.97;18.90;;;4.70;99.90;;;;;;5055915;28;20439;-66
2022/01/19 12:18:39;;;;;;;25.07;19.27;;;4.60;99.90;;;;;;5056306;28;20301;-65
2022/01/19 12:21:06;;;;;;;24.40;19.50;;;4.50;99.90;;;;;;5056444;28;20613;-68
2022/01/19 12:23:34;;;;;;;24.83;19.43;;;4.30;99.90;;;;;;5051855;28;21056;-66
2022/01/19 12:26:01;;;;;;;25.13;18.63;;;4.30;99.90;;;;;;5055882;28;20217;-66
2022/01/19 12:28:43;;;;;;;24.30;17.87;;;4.10;99.90;;;;;;5052436;28;20214;-65
2022/01/19 12:31:24;;;;;;;25.03;17.80;;;4.10;99.90;;;;;;5056170;28;20194;-65
2022/01/19 12:34:16;;;;;;;25.87;18.37;;;4.10;99.90;;;;;;5058623;28;20962;-67
2022/01/19 12:36:56;;;;;;;23.47;18.93;;;4.00;99.90;;;;;;5050906;28;20211;-69
2022/01/19 12:39:24;;;;;;;24.90;18.97;;;4.10;99.90;;;;;;5059225;28;20589;-69
2022/01/19 12:42:12;;;;;;;22.43;18.07;;;4.10;99.90;;;;;;5060413;28;20799;-70
2022/01/19 12:44:52;;;;;;;23.63;18.67;;;4.10;99.90;;;;;;5064770;28;20197;-65
2022/01/19 12:47:27;;;;;;;22.03;17.80;;;4.10;99.90;;;;;;5052437;28;20191;-65
2022/01/19 12:50:18;;;;;;;21.37;18.80;;;4.10;99.90;;;;;;5058629;28;20229;-65
2022/01/19 12:52:46;;;;;;;22.47;17.83;;;4.10;99.90;;;;;;5053696;28;20225;-67
2022/01/19 12:55:19;;;;;;;21.37;18.53;;;4.10;99.90;;;;;;5064654;28;20188;-65
2022/01/19 12:57:45;;;;;;;22.77;19.23;;;4.10;99.90;;;;;;5059215;28;20656;-65
2022/01/19 13:00:17;;;;;;;22.73;19.70;;;4.20;99.90;;;;;;5059124;28;20235;-64
2022/01/19 13:02:43;;;;;;;23.20;18.73;;;4.10;99.90;;;;;;5044467;28;20198;-69
2022/01/19 13:05:20;;;;;;;24.33;20.50;;;4.10;99.90;;;;;;5065327;28;20197;-64
2022/01/19 13:07:54;;;;;;;24.47;19.13;;;4.00;99.90;;;;;;5052025;28;20729;-65
2022/01/19 13:10:34;;;;;;;23.50;19.27;;;4.10;99.90;;;;;;5054919;28;20170;-66
2022/01/19 13:13:12;;;;;;;20.13;17.93;;;4.20;99.90;;;;;;5054221;28;20202;-67
2022/01/19 13:15:47;;;;;;;19.90;17.77;;;4.30;99.90;;;;;;5054081;28;20354;-68
2022/01/19 13:18:17;;;;;;;19.10;17.10;;;4.10;99.90;;;;;;5053853;28;20213;-67
2022/01/19 13:20:51;;;;;;;16.30;14.70;;;4.10;99.90;;;;;;5055157;28;20179;-68
2022/01/19 13:23:17;;;;;;;14.10;12.60;;;4.00;99.90;;;;;;5051946;28;20218;-66
2022/01/19 13:25:42;;;;;;;14.13;12.73;;;3.90;99.90;;;;;;5054461;28;20743;-66
2022/01/19 13:28:08;;;;;;;13.37;12.07;;;3.90;99.90;;;;;;5050278;28;20264;-66
2022/01/19 13:30:35;;;;;;;14.50;12.33;;;3.90;99.90;;;;;;5057240;28;20273;-66
2022/01/19 13:33:11;;;;;;;13.00;11.67;;;3.90;99.90;;;;;;5051133;28;20572;-66
2022/01/19 13:35:37;;;;;;;12.43;11.23;;;3.90;99.90;;;;;;5057028;28;20305;-66
2022/01/19 13:38:10;;;;;;;12.13;11.00;;;4.00;99.90;;;;;;5053433;28;20308;-69
2022/01/19 13:40:36;;;;;;;12.27;10.93;;;3.90;99.90;;;;;;5055575;28;20287;-70
2022/01/19 13:43:05;;;;;;;11.27;10.17;;;4.00;99.90;;;;;;5051605;28;20668;-71
2022/01/19 13:50:39;;;;;;;9.20;8.30;;;3.90;99.90;;;;;;5056439;28;20182;-65
2022/01/19 13:53:04;;;;;;;9.33;8.53;;;3.90;99.90;;;;;;5051196;28;20234;-67
2022/01/19 13:55:31;;;;;;;8.90;8.10;;;3.80;99.90;;;;;;5053792;28;20213;-67
2022/01/19 13:58:28;;;;;;;9.47;8.57;;;3.90;99.90;;;;;;5051448;28;20245;-67
2022/01/19 14:01:00;;;;;;;10.30;9.30;;;3.90;99.90;;;;;;5051136;28;20198;-66
2022/01/19 14:03:48;;;;;;;11.90;9.37;;;4.00;99.90;;;;;;5049173;28;20286;-65
2022/01/19 14:06:26;;;;;;;8.27;7.47;;;4.00;99.90;;;;;;5051659;28;20182;-66
2022/01/19 14:09:03;;;;;;;8.83;8.03;;;4.10;99.90;;;;;;5052086;28;20188;-68